createdAt,value
2018-12-21T00:00:48.733Z,1001.96
2018-12-21T00:01:49.338Z,1001.91
2018-12-21T00:02:49.925Z,1001.82
2018-12-21T00:03:50.515Z,1001.80
2018-12-21T00:04:51.111Z,1001.75
2018-12-21T00:05:51.707Z,1001.65
2018-12-21T00:06:52.305Z,1001.59
2018-12-21T00:07:52.900Z,1001.64
2018-12-21T00:08:53.497Z,1001.63
2018-12-21T00:09:54.085Z,1001.57
2018-12-21T00:10:54.682Z,1001.57
2018-12-21T00:11:55.270Z,1001.66
2018-12-21T00:12:55.861Z,1001.64
2018-12-21T00:13:56.450Z,1001.65
2018-12-21T00:14:57.039Z,1001.67
2018-12-21T00:15:57.631Z,1001.69
2018-12-21T00:16:58.226Z,1001.68
2018-12-21T00:17:58.826Z,1001.62
2018-12-21T00:18:59.427Z,1001.63
2018-12-21T00:20:00.023Z,1001.64
2018-12-21T00:22:16.097Z,1001.60
2018-12-21T00:23:16.692Z,1001.59
2018-12-21T00:24:17.289Z,1001.56
2018-12-21T00:25:17.881Z,1001.64
2018-12-21T00:26:18.478Z,1001.64
2018-12-21T00:27:19.075Z,1001.58
2018-12-21T00:28:19.673Z,1001.56
2018-12-21T00:29:20.270Z,1001.57
2018-12-21T00:30:20.865Z,1001.55
2018-12-21T00:31:21.463Z,1001.55
2018-12-21T00:32:22.058Z,1001.55
2018-12-21T00:33:22.671Z,1001.57
2018-12-21T00:34:23.256Z,1001.56
2018-12-21T00:35:23.851Z,1001.46
2018-12-21T00:36:24.449Z,1001.50
2018-12-21T00:37:25.047Z,1001.45
2018-12-21T00:38:25.647Z,1001.51
2018-12-21T00:39:26.232Z,1001.42
2018-12-21T00:40:26.821Z,1001.40
2018-12-21T00:41:27.419Z,1001.36
2018-12-21T00:42:28.008Z,1001.38
2018-12-21T00:43:28.607Z,1001.43
2018-12-21T00:44:29.203Z,1001.38
2018-12-21T00:45:29.799Z,1001.42
2018-12-21T00:46:30.391Z,1001.28
2018-12-21T00:47:30.987Z,1001.40
2018-12-21T00:48:31.583Z,1001.31
2018-12-21T00:49:32.180Z,1001.33
2018-12-21T00:50:32.775Z,1001.27
2018-12-21T00:51:33.378Z,1001.25
2018-12-21T00:52:33.968Z,1001.20
2018-12-21T00:53:34.564Z,1001.16
2018-12-21T00:54:35.159Z,1001.18
2018-12-21T00:55:35.747Z,1001.18
2018-12-21T00:56:36.353Z,1001.15
2018-12-21T00:57:36.950Z,1001.10
2018-12-21T00:58:37.550Z,1001.11
2018-12-21T00:59:38.167Z,1001.11
2018-12-21T01:00:38.770Z,1001.12
2018-12-21T01:01:39.372Z,1001.10
2018-12-21T01:02:39.957Z,1000.99
2018-12-21T01:03:40.555Z,1001.06
2018-12-21T01:04:41.142Z,1001.06
2018-12-21T01:05:41.731Z,1000.97
2018-12-21T01:06:42.329Z,1001.01
2018-12-21T01:07:42.916Z,1000.96
2018-12-21T01:08:43.515Z,1000.96
2018-12-21T01:09:44.111Z,1001.00
2018-12-21T01:10:44.711Z,1000.92
2018-12-21T01:11:45.296Z,1000.98
2018-12-21T01:12:45.893Z,1000.97
2018-12-21T01:13:46.495Z,1001.01
2018-12-21T01:14:47.090Z,1000.99
2018-12-21T01:15:47.687Z,1000.90
2018-12-21T01:16:48.276Z,1000.95
2018-12-21T01:17:48.875Z,1000.95
2018-12-21T01:18:49.472Z,1000.96
2018-12-21T01:19:50.067Z,1000.95
2018-12-21T01:20:50.666Z,1000.93
2018-12-21T01:21:51.264Z,1000.90
2018-12-21T01:22:51.853Z,1000.91
2018-12-21T01:23:52.449Z,1000.97
2018-12-21T01:24:53.041Z,1000.82
2018-12-21T01:25:53.631Z,1000.77
2018-12-21T01:26:54.228Z,1000.82
2018-12-21T01:27:54.827Z,1000.80
2018-12-21T01:28:55.424Z,1000.73
2018-12-21T01:29:56.021Z,1000.77
2018-12-21T01:30:56.623Z,1000.77
2018-12-21T01:31:57.215Z,1000.79
2018-12-21T01:32:57.810Z,1000.77
2018-12-21T01:33:58.408Z,1000.71
2018-12-21T01:34:59.003Z,1000.65
2018-12-21T01:35:59.591Z,1000.65
2018-12-21T01:37:00.191Z,1000.67
2018-12-21T01:38:00.785Z,1000.66
2018-12-21T01:39:01.383Z,1000.59
2018-12-21T01:40:01.982Z,1000.57
2018-12-21T01:41:02.571Z,1000.64
2018-12-21T01:42:03.161Z,1000.46
2018-12-21T01:43:03.758Z,1000.49
2018-12-21T01:44:04.347Z,1000.47
2018-12-21T01:45:04.950Z,1000.44
2018-12-21T01:46:05.563Z,1000.43
2018-12-21T01:47:06.147Z,1000.42
2018-12-21T01:48:06.737Z,1000.43
2018-12-21T01:49:07.335Z,1000.38
2018-12-21T01:50:07.929Z,1000.39
2018-12-21T01:51:08.527Z,1000.35
2018-12-21T01:52:09.126Z,1000.32
2018-12-21T01:53:09.719Z,1000.28
2018-12-21T01:54:10.319Z,1000.28
2018-12-21T01:55:10.908Z,1000.26
2018-12-21T01:56:11.504Z,1000.27
2018-12-21T01:57:12.102Z,1000.26
2018-12-21T01:58:12.698Z,1000.20
2018-12-21T01:59:13.293Z,1000.23
2018-12-21T02:00:13.882Z,1000.17
2018-12-21T02:01:14.481Z,1000.16
2018-12-21T02:02:15.085Z,1000.07
2018-12-21T02:03:15.661Z,1000.17
2018-12-21T02:04:16.260Z,1000.11
2018-12-21T02:05:16.854Z,1000.06
2018-12-21T02:06:17.443Z,1000.10
2018-12-21T02:07:18.029Z,999.94
2018-12-21T02:08:18.627Z,1000.08
2018-12-21T02:09:19.215Z,1000.01
2018-12-21T02:10:19.811Z,1000.00
2018-12-21T02:11:20.415Z,999.97
2018-12-21T02:12:21.006Z,999.95
2018-12-21T02:13:21.592Z,999.89
2018-12-21T02:14:22.180Z,999.81
2018-12-21T02:15:22.773Z,999.93
2018-12-21T02:16:23.364Z,999.83
2018-12-21T02:17:23.954Z,999.85
2018-12-21T02:18:24.543Z,999.75
2018-12-21T02:19:25.142Z,999.75
2018-12-21T02:20:25.748Z,999.85
2018-12-21T02:21:26.333Z,999.81
2018-12-21T02:22:26.928Z,999.74
2018-12-21T02:23:27.530Z,999.72
2018-12-21T02:24:28.121Z,999.73
2018-12-21T02:25:28.715Z,999.70
2018-12-21T02:26:29.301Z,999.70
2018-12-21T02:27:29.890Z,999.66
2018-12-21T02:28:30.487Z,999.73
2018-12-21T02:29:31.088Z,999.70
2018-12-21T02:30:31.681Z,999.59
2018-12-21T02:31:32.271Z,999.56
2018-12-21T02:32:32.865Z,999.40
2018-12-21T02:33:33.454Z,999.50
2018-12-21T02:34:34.049Z,999.52
2018-12-21T02:35:34.635Z,999.38
2018-12-21T02:36:35.235Z,999.37
2018-12-21T02:37:35.971Z,999.38
2018-12-21T02:38:36.421Z,999.35
2018-12-21T02:39:37.022Z,999.32
2018-12-21T02:40:37.617Z,999.34
2018-12-21T02:41:38.224Z,999.39
2018-12-21T02:42:38.808Z,999.29
2018-12-21T02:43:39.405Z,999.33
2018-12-21T02:44:40.001Z,999.22
2018-12-21T02:45:40.598Z,999.22
2018-12-21T02:46:41.184Z,999.16
2018-12-21T02:47:41.781Z,999.27
2018-12-21T02:48:42.386Z,999.14
2018-12-21T02:49:42.964Z,999.12
2018-12-21T02:50:43.563Z,999.06
2018-12-21T02:51:44.160Z,999.06
2018-12-21T02:52:44.754Z,998.96
2018-12-21T02:53:45.349Z,999.06
2018-12-21T02:54:45.944Z,998.98
2018-12-21T02:55:46.541Z,999.04
2018-12-21T02:56:47.131Z,999.00
2018-12-21T02:57:47.719Z,998.98
2018-12-21T02:58:48.326Z,998.97
2018-12-21T02:59:48.918Z,998.91
2018-12-21T03:00:49.498Z,998.94
2018-12-21T03:01:50.095Z,998.98
2018-12-21T03:02:50.691Z,999.02
2018-12-21T03:03:51.298Z,998.97
2018-12-21T03:04:51.883Z,998.95
2018-12-21T03:05:52.481Z,998.96
2018-12-21T03:06:53.086Z,998.95
2018-12-21T03:07:53.674Z,999.00
2018-12-21T03:08:54.278Z,998.86
2018-12-21T03:09:54.867Z,998.84
2018-12-21T03:10:55.460Z,998.82
2018-12-21T03:11:56.057Z,998.80
2018-12-21T03:12:56.657Z,998.76
2018-12-21T03:13:57.241Z,998.74
2018-12-21T03:14:57.838Z,998.62
2018-12-21T03:15:58.498Z,998.61
2018-12-21T03:16:59.015Z,998.51
2018-12-21T03:17:59.604Z,998.55
2018-12-21T03:19:00.201Z,998.41
2018-12-21T03:20:00.798Z,998.40
2018-12-21T03:21:01.393Z,998.42
2018-12-21T03:22:01.989Z,998.37
2018-12-21T03:23:02.577Z,998.36
2018-12-21T03:24:03.173Z,998.26
2018-12-21T03:25:03.773Z,998.22
2018-12-21T03:26:04.364Z,998.22
2018-12-21T03:27:04.962Z,998.22
2018-12-21T03:28:05.551Z,998.22
2018-12-21T03:29:06.248Z,998.15
2018-12-21T03:30:06.769Z,998.12
2018-12-21T03:31:07.360Z,998.17
2018-12-21T03:32:07.955Z,998.12
2018-12-21T03:33:08.540Z,998.11
2018-12-21T03:34:09.130Z,998.05
2018-12-21T03:35:09.727Z,998.03
2018-12-21T03:36:10.315Z,998.00
2018-12-21T03:37:10.910Z,997.95
2018-12-21T03:38:11.508Z,997.91
2018-12-21T03:39:12.102Z,997.86
2018-12-21T03:40:12.698Z,997.85
2018-12-21T03:41:13.296Z,997.81
2018-12-21T03:42:13.890Z,997.76
2018-12-21T03:43:14.478Z,997.75
2018-12-21T03:44:15.069Z,997.69
2018-12-21T03:45:15.658Z,997.64
2018-12-21T03:46:16.255Z,997.69
2018-12-21T03:47:16.852Z,997.71
2018-12-21T03:48:17.450Z,997.60
2018-12-21T03:49:18.048Z,997.57
2018-12-21T03:50:18.642Z,997.56
2018-12-21T03:51:19.237Z,997.53
2018-12-21T03:52:24.169Z,997.51
2018-12-21T03:53:20.420Z,997.47
2018-12-21T03:54:21.017Z,997.47
2018-12-21T03:55:21.603Z,997.47
2018-12-21T03:56:22.201Z,997.40
2018-12-21T03:57:22.799Z,997.38
2018-12-21T03:58:23.387Z,997.37
2018-12-21T03:59:23.983Z,997.43
2018-12-21T04:00:24.577Z,997.45
2018-12-21T04:01:25.173Z,997.49
2018-12-21T04:02:25.767Z,997.38
2018-12-21T04:03:26.365Z,997.34
2018-12-21T04:04:26.963Z,997.34
2018-12-21T04:05:27.549Z,997.19
2018-12-21T04:06:28.145Z,997.07
2018-12-21T04:07:28.742Z,997.06
2018-12-21T04:08:29.338Z,996.96
2018-12-21T04:09:29.937Z,996.96
2018-12-21T04:10:30.530Z,996.93
2018-12-21T04:11:31.126Z,996.86
2018-12-21T04:12:31.712Z,996.75
2018-12-21T04:13:32.307Z,996.73
2018-12-21T04:14:32.898Z,996.74
2018-12-21T04:15:33.490Z,996.70
2018-12-21T04:16:34.082Z,996.67
2018-12-21T04:17:34.676Z,996.75
2018-12-21T04:18:35.271Z,996.79
2018-12-21T04:19:35.862Z,996.92
2018-12-21T04:20:36.457Z,996.89
2018-12-21T04:21:37.053Z,996.83
2018-12-21T04:22:37.647Z,996.77
2018-12-21T04:23:38.236Z,996.94
2018-12-21T04:24:38.820Z,996.90
2018-12-21T04:25:39.417Z,996.86
2018-12-21T04:26:40.010Z,996.91
2018-12-21T04:27:40.601Z,996.91
2018-12-21T04:28:41.199Z,996.81
2018-12-21T04:29:41.792Z,996.78
2018-12-21T04:30:42.390Z,996.78
2018-12-21T04:31:42.984Z,996.76
2018-12-21T04:32:43.580Z,996.80
2018-12-21T04:33:44.179Z,996.77
2018-12-21T04:34:44.764Z,996.77
2018-12-21T04:35:45.360Z,996.76
2018-12-21T04:36:45.952Z,996.70
2018-12-21T04:37:46.540Z,996.69
2018-12-21T04:38:47.130Z,996.66
2018-12-21T04:39:47.726Z,996.66
2018-12-21T04:40:48.321Z,996.62
2018-12-21T04:41:48.909Z,996.58
2018-12-21T04:42:49.504Z,996.59
2018-12-21T04:43:50.097Z,996.57
2018-12-21T04:44:50.685Z,996.50
2018-12-21T04:45:51.280Z,996.51
2018-12-21T04:46:51.874Z,996.44
2018-12-21T04:47:52.469Z,996.42
2018-12-21T04:48:53.067Z,996.41
2018-12-21T04:49:53.660Z,996.39
2018-12-21T04:50:54.256Z,996.41
2018-12-21T04:51:54.844Z,996.33
2018-12-21T04:52:55.436Z,996.30
2018-12-21T04:53:57.425Z,996.22
2018-12-21T04:54:57.614Z,996.32
2018-12-21T04:55:58.210Z,996.32
2018-12-21T04:56:58.800Z,996.32
2018-12-21T04:57:59.387Z,996.28
2018-12-21T04:58:59.985Z,996.26
2018-12-21T05:00:00.575Z,996.20
2018-12-21T05:01:01.165Z,996.18
2018-12-21T05:02:01.758Z,996.23
2018-12-21T05:03:02.348Z,996.14
2018-12-21T05:04:02.946Z,996.03
2018-12-21T05:05:03.529Z,996.01
2018-12-21T05:06:04.118Z,996.00
2018-12-21T05:07:12.097Z,995.88
2018-12-21T05:08:05.305Z,995.85
2018-12-21T05:09:05.897Z,995.86
2018-12-21T05:10:06.482Z,995.80
2018-12-21T05:11:07.072Z,995.84
2018-12-21T05:12:07.657Z,995.81
2018-12-21T05:13:08.253Z,995.79
2018-12-21T05:14:08.848Z,995.71
2018-12-21T05:15:09.444Z,995.74
2018-12-21T05:16:10.039Z,995.66
2018-12-21T05:17:10.626Z,995.55
2018-12-21T05:18:11.212Z,995.53
2018-12-21T05:19:11.811Z,995.57
2018-12-21T05:20:12.404Z,995.55
2018-12-21T05:21:12.992Z,995.46
2018-12-21T05:22:13.589Z,995.41
2018-12-21T05:23:14.183Z,995.35
2018-12-21T05:24:14.776Z,995.33
2018-12-21T05:25:15.366Z,995.31
2018-12-21T05:26:15.951Z,995.27
2018-12-21T05:27:16.537Z,995.29
2018-12-21T05:28:17.138Z,995.27
2018-12-21T05:29:17.734Z,995.28
2018-12-21T05:30:18.328Z,995.22
2018-12-21T05:31:28.071Z,995.23
2018-12-21T05:32:19.499Z,995.18
2018-12-21T05:33:20.099Z,995.12
2018-12-21T05:34:20.688Z,995.18
2018-12-21T05:35:21.275Z,995.14
2018-12-21T05:36:21.872Z,995.09
2018-12-21T05:37:22.485Z,995.06
2018-12-21T05:38:23.078Z,995.05
2018-12-21T05:39:23.666Z,994.97
2018-12-21T05:40:24.262Z,994.92
2018-12-21T05:41:24.864Z,994.89
2018-12-21T05:42:25.465Z,994.86
2018-12-21T05:43:26.046Z,994.92
2018-12-21T05:44:26.645Z,994.89
2018-12-21T05:45:27.240Z,994.70
2018-12-21T05:46:27.833Z,994.84
2018-12-21T05:47:28.424Z,994.79
2018-12-21T05:48:29.016Z,994.87
2018-12-21T05:49:29.603Z,994.78
2018-12-21T05:50:30.203Z,994.72
2018-12-21T05:51:30.794Z,994.74
2018-12-21T05:52:31.390Z,994.69
2018-12-21T05:53:31.987Z,994.65
2018-12-21T05:54:32.575Z,994.59
2018-12-21T05:55:33.163Z,994.58
2018-12-21T05:56:33.748Z,994.50
2018-12-21T05:57:34.342Z,994.62
2018-12-21T05:58:34.936Z,994.45
2018-12-21T05:59:35.522Z,994.55
2018-12-21T06:00:36.118Z,994.48
2018-12-21T06:01:36.715Z,994.37
2018-12-21T06:02:37.307Z,994.45
2018-12-21T06:03:37.902Z,994.36
2018-12-21T06:04:38.490Z,994.44
2018-12-21T06:05:39.088Z,994.37
2018-12-21T06:06:39.686Z,994.28
2018-12-21T06:07:40.276Z,994.33
2018-12-21T06:08:40.871Z,994.30
2018-12-21T06:09:41.468Z,994.30
2018-12-21T06:10:42.063Z,994.40
2018-12-21T06:11:42.659Z,994.27
2018-12-21T06:12:43.247Z,994.20
2018-12-21T06:13:43.848Z,994.32
2018-12-21T06:14:44.428Z,994.30
2018-12-21T06:15:45.015Z,994.31
2018-12-21T06:16:45.615Z,994.19
2018-12-21T06:17:46.206Z,994.26
2018-12-21T06:18:46.792Z,994.19
2018-12-21T06:19:47.390Z,994.17
2018-12-21T06:20:48.074Z,994.23
2018-12-21T06:21:48.590Z,994.23
2018-12-21T06:22:49.180Z,994.18
2018-12-21T06:23:49.770Z,994.06
2018-12-21T06:24:50.358Z,994.09
2018-12-21T06:25:50.946Z,994.07
2018-12-21T06:26:51.533Z,993.99
2018-12-21T06:27:52.130Z,994.10
2018-12-21T06:28:52.726Z,994.05
2018-12-21T06:29:53.320Z,993.96
2018-12-21T06:30:53.916Z,994.00
2018-12-21T06:31:54.514Z,993.93
2018-12-21T06:32:55.110Z,993.92
2018-12-21T06:33:55.693Z,993.84
2018-12-21T06:34:56.291Z,993.83
2018-12-21T06:35:56.887Z,993.85
2018-12-21T06:36:57.482Z,993.87
2018-12-21T06:37:58.082Z,993.80
2018-12-21T06:38:58.673Z,993.77
2018-12-21T06:39:59.269Z,993.70
2018-12-21T06:40:59.865Z,993.73
2018-12-21T06:42:00.453Z,993.64
2018-12-21T06:43:01.040Z,993.64
2018-12-21T06:44:01.636Z,993.51
2018-12-21T06:45:02.220Z,993.65
2018-12-21T06:46:02.815Z,993.66
2018-12-21T06:47:03.403Z,993.57
2018-12-21T06:48:03.990Z,993.59
2018-12-21T06:49:04.586Z,993.55
2018-12-21T06:50:05.182Z,993.34
2018-12-21T06:51:05.770Z,993.52
2018-12-21T06:52:06.365Z,993.57
2018-12-21T06:53:06.956Z,993.62
2018-12-21T06:54:07.551Z,993.61
2018-12-21T06:55:08.145Z,993.55
2018-12-21T06:56:08.740Z,993.55
2018-12-21T06:57:09.338Z,993.59
2018-12-21T06:58:09.934Z,993.63
2018-12-21T06:59:10.538Z,993.64
2018-12-21T07:00:11.129Z,993.62
2018-12-21T07:01:11.717Z,993.57
2018-12-21T07:02:12.311Z,993.55
2018-12-21T07:03:17.081Z,993.61
2018-12-21T07:04:13.491Z,993.57
2018-12-21T07:05:14.092Z,993.60
2018-12-21T07:06:14.684Z,993.55
2018-12-21T07:07:15.278Z,993.43
2018-12-21T07:08:15.878Z,993.46
2018-12-21T07:09:16.471Z,993.50
2018-12-21T07:10:17.065Z,993.42
2018-12-21T07:11:17.700Z,993.42
2018-12-21T07:12:18.262Z,993.34
2018-12-21T07:13:18.865Z,993.24
2018-12-21T07:14:19.440Z,993.22
2018-12-21T07:15:20.034Z,993.21
2018-12-21T07:16:20.631Z,993.14
2018-12-21T07:17:21.283Z,993.07
2018-12-21T07:18:21.881Z,993.11
2018-12-21T07:19:22.471Z,993.06
2018-12-21T07:20:23.056Z,993.13
2018-12-21T07:21:23.656Z,992.95
2018-12-21T07:22:24.257Z,992.92
2018-12-21T07:23:27.222Z,992.99
2018-12-21T07:24:25.447Z,992.95
2018-12-21T07:25:26.044Z,992.95
2018-12-21T07:26:26.643Z,992.85
2018-12-21T07:27:27.234Z,992.88
2018-12-21T07:28:27.835Z,992.86
2018-12-21T07:29:28.433Z,992.80
2018-12-21T07:30:29.027Z,992.76
2018-12-21T07:31:29.623Z,992.81
2018-12-21T07:32:30.218Z,992.76
2018-12-21T07:33:30.813Z,992.75
2018-12-21T07:34:31.410Z,992.67
2018-12-21T07:35:32.003Z,992.72
2018-12-21T07:36:32.608Z,992.62
2018-12-21T07:37:33.197Z,992.65
2018-12-21T07:38:33.797Z,992.58
2018-12-21T07:39:34.395Z,992.47
2018-12-21T07:40:34.991Z,992.53
2018-12-21T07:41:35.583Z,992.52
2018-12-21T07:42:36.183Z,992.55
2018-12-21T07:43:36.778Z,992.50
2018-12-21T07:44:37.367Z,992.37
2018-12-21T07:45:37.967Z,992.43
2018-12-21T07:46:38.563Z,992.39
2018-12-21T07:47:39.158Z,992.34
2018-12-21T07:48:39.757Z,992.28
2018-12-21T07:49:40.355Z,992.23
2018-12-21T07:50:40.954Z,992.20
2018-12-21T07:51:41.542Z,992.13
2018-12-21T07:52:42.141Z,992.11
2018-12-21T07:53:42.738Z,992.06
2018-12-21T07:54:43.335Z,992.09
2018-12-21T07:55:43.933Z,992.03
2018-12-21T07:56:44.534Z,991.94
2018-12-21T07:57:45.129Z,991.73
2018-12-21T07:58:45.723Z,991.75
2018-12-21T07:59:46.311Z,991.68
2018-12-21T08:00:46.907Z,991.63
2018-12-21T08:01:47.500Z,991.52
2018-12-21T08:02:48.102Z,991.46
2018-12-21T08:03:48.701Z,991.45
2018-12-21T08:04:49.293Z,991.43
2018-12-21T08:05:49.890Z,991.37
2018-12-21T08:06:50.491Z,991.33
2018-12-21T08:07:51.082Z,991.45
2018-12-21T08:08:51.683Z,991.40
2018-12-21T08:09:52.276Z,991.37
2018-12-21T08:10:52.875Z,991.38
2018-12-21T08:11:53.473Z,991.43
2018-12-21T08:12:54.070Z,991.40
2018-12-21T08:13:54.662Z,991.25
2018-12-21T08:14:55.262Z,991.40
2018-12-21T08:15:55.902Z,991.44
2018-12-21T08:16:56.451Z,991.38
2018-12-21T08:17:57.045Z,991.41
2018-12-21T08:18:57.641Z,991.36
2018-12-21T08:19:58.236Z,991.25
2018-12-21T08:20:58.828Z,991.32
2018-12-21T08:21:59.429Z,991.33
2018-12-21T08:23:00.033Z,991.37
2018-12-21T08:24:00.635Z,991.35
2018-12-21T08:25:01.235Z,991.31
2018-12-21T08:26:01.835Z,991.30
2018-12-21T08:27:02.433Z,991.34
2018-12-21T08:28:03.037Z,991.18
2018-12-21T08:29:03.634Z,991.20
2018-12-21T08:30:04.224Z,991.20
2018-12-21T08:31:04.823Z,991.07
2018-12-21T08:32:05.417Z,991.12
2018-12-21T08:33:06.019Z,991.12
2018-12-21T08:34:06.621Z,991.00
2018-12-21T08:35:07.222Z,991.06
2018-12-21T08:36:07.821Z,991.04
2018-12-21T08:37:08.419Z,990.99
2018-12-21T08:38:09.024Z,990.97
2018-12-21T08:39:09.624Z,990.96
2018-12-21T08:40:10.218Z,990.88
2018-12-21T08:41:10.810Z,990.88
2018-12-21T08:42:11.412Z,990.80
2018-12-21T08:43:12.014Z,990.85
2018-12-21T08:44:12.617Z,990.77
2018-12-21T08:45:13.216Z,990.64
2018-12-21T08:46:13.809Z,990.77
2018-12-21T08:47:14.403Z,990.77
2018-12-21T08:48:15.009Z,990.72
2018-12-21T08:49:15.620Z,990.71
2018-12-21T08:50:16.209Z,990.76
2018-12-21T08:51:16.811Z,990.84
2018-12-21T08:52:17.410Z,990.49
2018-12-21T08:53:18.014Z,990.75
2018-12-21T08:54:18.603Z,990.74
2018-12-21T08:55:19.205Z,990.71
2018-12-21T08:56:19.801Z,990.74
2018-12-21T08:57:20.401Z,990.72
2018-12-21T08:58:20.997Z,990.69
2018-12-21T08:59:21.591Z,990.77
2018-12-21T09:00:22.181Z,990.70
2018-12-21T09:01:22.775Z,990.67
2018-12-21T09:02:23.370Z,990.46
2018-12-21T09:03:23.962Z,990.61
2018-12-21T09:04:32.005Z,990.68
2018-12-21T09:05:25.164Z,990.72
2018-12-21T09:06:25.784Z,990.72
2018-12-21T09:07:26.361Z,990.56
2018-12-21T09:08:26.954Z,990.54
2018-12-21T09:09:27.549Z,990.60
2018-12-21T09:10:28.143Z,990.43
2018-12-21T09:11:28.746Z,990.49
2018-12-21T09:12:29.353Z,990.34
2018-12-21T09:13:29.954Z,990.43
2018-12-21T09:14:30.546Z,990.45
2018-12-21T09:15:31.154Z,990.43
2018-12-21T09:16:31.752Z,990.37
2018-12-21T09:17:32.357Z,990.21
2018-12-21T09:18:32.955Z,990.60
2018-12-21T09:19:33.562Z,990.54
2018-12-21T09:20:34.167Z,990.44
2018-12-21T09:21:34.770Z,990.62
2018-12-21T09:22:35.366Z,990.70
2018-12-21T09:23:35.965Z,990.37
2018-12-21T09:24:36.564Z,990.36
2018-12-21T09:25:37.178Z,990.46
2018-12-21T09:26:37.762Z,990.29
2018-12-21T09:27:38.378Z,990.37
2018-12-21T09:28:38.975Z,990.19
2018-12-21T09:29:39.577Z,990.32
2018-12-21T09:30:40.182Z,990.31
2018-12-21T09:31:40.775Z,990.40
2018-12-21T09:32:41.378Z,990.33
2018-12-21T09:33:41.968Z,990.38
2018-12-21T09:34:42.581Z,990.45
2018-12-21T09:35:43.177Z,990.37
2018-12-21T09:36:43.769Z,990.49
2018-12-21T09:37:44.368Z,990.50
2018-12-21T09:38:44.973Z,990.29
2018-12-21T09:39:45.579Z,990.27
2018-12-21T09:40:46.184Z,990.24
2018-12-21T09:41:46.777Z,990.20
2018-12-21T09:42:47.377Z,990.27
2018-12-21T09:43:47.979Z,989.91
2018-12-21T09:44:52.464Z,990.18
2018-12-21T09:45:49.216Z,990.28
2018-12-21T09:46:49.780Z,990.26
2018-12-21T09:47:50.382Z,990.23
2018-12-21T09:48:50.979Z,990.27
2018-12-21T09:49:51.573Z,990.30
2018-12-21T09:50:52.181Z,990.11
2018-12-21T09:51:52.789Z,990.31
2018-12-21T09:52:53.391Z,990.35
2018-12-21T09:53:53.989Z,990.23
2018-12-21T09:54:54.600Z,990.18
2018-12-21T09:55:55.207Z,990.16
2018-12-21T09:56:55.800Z,990.24
2018-12-21T09:57:56.408Z,990.12
2018-12-21T09:58:57.018Z,990.13
2018-12-21T09:59:57.617Z,990.20
2018-12-21T10:00:58.217Z,990.26
2018-12-21T10:01:58.820Z,990.22
2018-12-21T10:02:59.417Z,989.14
2018-12-21T10:04:00.020Z,990.26
2018-12-21T10:05:00.619Z,990.25
2018-12-21T10:06:01.214Z,990.04
2018-12-21T10:07:01.820Z,990.26
2018-12-21T10:08:02.417Z,990.25
2018-12-21T10:09:03.023Z,990.37
2018-12-21T10:10:03.625Z,990.21
2018-12-21T10:11:04.248Z,990.40
2018-12-21T10:12:04.843Z,990.16
2018-12-21T10:13:05.461Z,990.26
2018-12-21T10:14:06.047Z,990.36
2018-12-21T10:15:06.651Z,990.26
2018-12-21T10:16:07.256Z,990.29
2018-12-21T10:17:07.860Z,990.22
2018-12-21T10:18:08.461Z,990.36
2018-12-21T10:19:09.058Z,990.31
2018-12-21T10:20:09.665Z,990.37
2018-12-21T10:21:10.266Z,990.41
2018-12-21T10:22:10.861Z,990.29
2018-12-21T10:23:11.466Z,990.25
2018-12-21T10:24:18.523Z,990.16
2018-12-21T10:25:12.674Z,990.23
2018-12-21T10:26:13.278Z,990.16
2018-12-21T10:27:13.874Z,990.11
2018-12-21T10:28:14.469Z,990.17
2018-12-21T10:29:15.074Z,990.17
2018-12-21T10:30:15.686Z,990.13
2018-12-21T10:31:16.283Z,989.90
2018-12-21T10:32:16.898Z,989.99
2018-12-21T10:33:17.494Z,990.02
2018-12-21T10:34:18.100Z,990.06
2018-12-21T10:35:18.705Z,990.04
2018-12-21T10:36:19.313Z,990.01
2018-12-21T10:37:19.917Z,990.04
2018-12-21T10:38:20.525Z,989.94
2018-12-21T10:39:21.178Z,989.92
2018-12-21T10:40:21.729Z,989.90
2018-12-21T10:41:22.326Z,989.94
2018-12-21T10:42:22.932Z,989.93
2018-12-21T10:43:23.530Z,990.02
2018-12-21T10:44:24.130Z,989.92
2018-12-21T10:45:24.737Z,989.84
2018-12-21T10:46:25.335Z,989.87
2018-12-21T10:47:25.931Z,989.96
2018-12-21T10:48:26.532Z,990.00
2018-12-21T10:49:27.132Z,989.95
2018-12-21T10:50:27.741Z,989.75
2018-12-21T10:51:28.337Z,989.95
2018-12-21T10:52:28.945Z,989.76
2018-12-21T10:53:29.549Z,989.98
2018-12-21T10:54:30.153Z,990.00
2018-12-21T10:55:30.763Z,990.03
2018-12-21T10:56:31.368Z,990.09
2018-12-21T10:57:31.965Z,989.96
2018-12-21T10:58:32.576Z,990.00
2018-12-21T10:59:33.182Z,990.04
2018-12-21T11:00:33.789Z,990.03
2018-12-21T11:01:34.394Z,989.95
2018-12-21T11:02:35.003Z,990.04
2018-12-21T11:03:35.606Z,989.98
2018-12-21T11:04:36.216Z,990.09
2018-12-21T11:05:36.824Z,990.07
2018-12-21T11:06:37.431Z,990.04
2018-12-21T11:07:38.078Z,989.92
2018-12-21T11:08:38.634Z,989.98
2018-12-21T11:09:39.242Z,990.00
2018-12-21T11:10:39.841Z,990.15
2018-12-21T11:11:40.446Z,989.94
2018-12-21T11:12:41.052Z,990.02
2018-12-21T11:13:41.666Z,989.91
2018-12-21T11:14:42.265Z,989.96
2018-12-21T11:15:42.867Z,989.95
2018-12-21T11:16:43.475Z,989.81
2018-12-21T11:17:44.123Z,990.00
2018-12-21T11:18:44.683Z,989.97
2018-12-21T11:19:45.294Z,989.84
2018-12-21T11:20:45.901Z,989.88
2018-12-21T11:21:46.503Z,989.92
2018-12-21T11:22:47.114Z,989.96
2018-12-21T11:23:47.709Z,990.01
2018-12-21T11:24:48.318Z,990.06
2018-12-21T11:25:48.924Z,990.03
2018-12-21T11:26:49.525Z,989.96
2018-12-21T11:27:50.122Z,990.08
2018-12-21T11:28:50.728Z,990.04
2018-12-21T11:29:51.335Z,990.06
2018-12-21T11:30:51.943Z,990.00
2018-12-21T11:31:52.545Z,989.97
2018-12-21T11:32:53.160Z,989.86
2018-12-21T11:33:53.762Z,989.98
2018-12-21T11:34:54.961Z,990.04
2018-12-21T11:35:54.965Z,990.02
2018-12-21T11:36:55.577Z,990.03
2018-12-21T11:37:56.177Z,989.98
2018-12-21T11:38:56.786Z,990.00
2018-12-21T11:39:57.395Z,989.93
2018-12-21T11:40:58.004Z,990.02
2018-12-21T11:41:58.630Z,990.06
2018-12-21T11:42:59.243Z,989.97
2018-12-21T11:43:59.840Z,990.01
2018-12-21T11:45:00.439Z,990.06
2018-12-21T11:46:01.044Z,990.06
2018-12-21T11:47:01.651Z,990.00
2018-12-21T11:48:02.259Z,989.99
2018-12-21T11:49:02.870Z,989.96
2018-12-21T11:50:03.477Z,989.93
2018-12-21T11:51:04.080Z,989.84
2018-12-21T11:52:04.679Z,989.90
2018-12-21T11:53:05.288Z,989.87
2018-12-21T11:54:05.899Z,989.71
2018-12-21T11:55:06.503Z,989.91
2018-12-21T11:56:07.111Z,989.95
2018-12-21T11:57:07.710Z,989.81
2018-12-21T11:58:08.309Z,989.88
2018-12-21T11:59:08.925Z,989.86
2018-12-21T12:00:09.525Z,989.76
2018-12-21T12:01:10.128Z,989.62
2018-12-21T12:02:19.318Z,989.92
2018-12-21T12:03:11.337Z,989.84
2018-12-21T12:04:11.935Z,989.80
2018-12-21T12:05:12.534Z,989.83
2018-12-21T12:06:13.146Z,989.85
2018-12-21T12:07:13.750Z,989.86
2018-12-21T12:08:14.362Z,990.00
2018-12-21T12:09:14.958Z,989.72
2018-12-21T12:10:15.563Z,989.74
2018-12-21T12:11:16.165Z,989.79
2018-12-21T12:12:16.762Z,989.87
2018-12-21T12:13:17.371Z,989.88
2018-12-21T12:14:17.971Z,989.92
2018-12-21T12:15:18.571Z,989.95
2018-12-21T12:16:19.186Z,989.84
2018-12-21T12:17:19.794Z,989.84
2018-12-21T12:18:20.589Z,989.83
2018-12-21T12:19:21.192Z,989.67
2018-12-21T12:20:21.800Z,989.76
2018-12-21T12:21:22.438Z,989.85
2018-12-21T12:22:23.021Z,989.68
2018-12-21T12:23:23.628Z,989.70
2018-12-21T12:24:24.231Z,989.71
2018-12-21T12:25:24.825Z,989.75
2018-12-21T12:26:25.437Z,989.89
2018-12-21T12:27:26.044Z,989.87
2018-12-21T12:28:26.651Z,989.70
2018-12-21T12:29:27.253Z,989.93
2018-12-21T12:30:27.854Z,990.01
2018-12-21T12:31:28.459Z,989.98
2018-12-21T12:32:29.065Z,989.97
2018-12-21T12:33:29.708Z,989.98